createdAt,value
2019-03-18T00:00:33.043Z,1.70
2019-03-18T00:05:38.246Z,1.60
2019-03-18T00:10:43.765Z,1.63
2019-03-18T00:15:49.176Z,2.00
2019-03-18T00:20:54.655Z,1.40
2019-03-18T00:26:00.092Z,1.53
2019-03-18T00:31:05.516Z,1.80
2019-03-18T00:36:11.005Z,2.10
2019-03-18T00:41:16.459Z,1.70
2019-03-18T00:46:21.920Z,1.90
2019-03-18T00:51:27.327Z,1.93
2019-03-18T00:56:32.782Z,1.70
2019-03-18T01:01:38.310Z,1.80
2019-03-18T01:06:43.789Z,2.07
2019-03-18T01:11:50.438Z,2.10
2019-03-18T01:16:55.866Z,2.20
2019-03-18T01:22:01.317Z,1.93
2019-03-18T01:27:06.798Z,2.90
2019-03-18T01:32:12.206Z,2.63
2019-03-18T01:37:17.646Z,2.43
2019-03-18T01:42:23.087Z,2.80
2019-03-18T01:47:28.523Z,2.60
2019-03-18T01:52:34.054Z,2.37
2019-03-18T01:57:40.162Z,2.87
2019-03-18T02:02:46.282Z,2.93
2019-03-18T02:07:51.726Z,2.90
2019-03-18T02:12:57.280Z,2.83
2019-03-18T02:18:02.691Z,3.30
2019-03-18T02:23:11.379Z,2.93
2019-03-18T02:28:16.780Z,3.03
2019-03-18T02:33:22.601Z,2.77
2019-03-18T02:38:28.059Z,3.63
2019-03-18T02:43:33.586Z,2.97
2019-03-18T02:48:39.024Z,3.47
2019-03-18T02:53:44.440Z,3.20
2019-03-18T02:58:49.851Z,3.17
2019-03-18T03:03:55.283Z,3.23
2019-03-18T03:09:01.091Z,3.20
2019-03-18T03:14:06.499Z,3.53
2019-03-18T03:19:11.909Z,3.10
2019-03-18T03:24:17.362Z,3.23
2019-03-18T03:29:22.795Z,3.03
2019-03-18T03:34:28.204Z,3.07
2019-03-18T03:39:33.650Z,3.80
2019-03-18T03:44:39.071Z,3.77
2019-03-18T03:49:44.869Z,3.83
2019-03-18T03:54:50.630Z,3.80
2019-03-18T03:59:56.435Z,3.50
2019-03-18T04:05:02.305Z,3.67
2019-03-18T04:10:07.896Z,3.63
2019-03-18T04:15:13.970Z,4.13
2019-03-18T04:20:19.463Z,4.20
2019-03-18T04:25:25.252Z,4.43
2019-03-18T04:30:30.999Z,5.00
2019-03-18T04:35:36.751Z,4.20
2019-03-18T04:40:42.187Z,4.10
2019-03-18T04:45:47.643Z,4.70
2019-03-18T04:50:53.078Z,4.40
2019-03-18T04:55:58.489Z,4.40
2019-03-18T05:01:03.982Z,4.50
2019-03-18T05:06:09.503Z,4.70
2019-03-18T05:11:14.947Z,4.40
2019-03-18T05:16:20.699Z,4.07
2019-03-18T05:21:26.132Z,4.20
2019-03-18T05:26:31.878Z,3.77
2019-03-18T05:31:37.306Z,3.90
2019-03-18T05:36:42.867Z,4.27
2019-03-18T05:41:48.292Z,3.50
2019-03-18T05:46:53.695Z,2.53
2019-03-18T05:51:59.489Z,3.53
2019-03-18T05:57:05.606Z,3.37
2019-03-18T06:02:11.103Z,3.17
2019-03-18T06:07:16.958Z,3.70
2019-03-18T06:12:22.418Z,3.40
2019-03-18T06:17:28.194Z,3.63
2019-03-18T06:22:33.623Z,3.30
2019-03-18T06:27:39.399Z,2.80
2019-03-18T06:32:44.812Z,3.27
2019-03-18T06:37:50.560Z,3.73
2019-03-18T06:42:56.027Z,3.17
2019-03-18T06:48:05.075Z,3.67
2019-03-18T06:53:07.356Z,3.20
2019-03-18T06:58:12.787Z,3.23
2019-03-18T07:03:18.258Z,4.20
2019-03-18T07:08:23.683Z,3.83
2019-03-18T07:13:29.124Z,3.63
2019-03-18T07:18:34.546Z,3.73
2019-03-18T07:23:39.969Z,3.53
2019-03-18T07:28:45.412Z,3.70
2019-03-18T07:33:51.530Z,3.33
2019-03-18T07:38:56.961Z,3.60
2019-03-18T07:44:02.758Z,3.60
2019-03-18T07:49:08.539Z,3.00
2019-03-18T07:54:14.295Z,3.43
2019-03-18T07:59:19.717Z,3.30
2019-03-18T08:04:36.818Z,3.00
2019-03-18T08:09:31.607Z,3.10
2019-03-18T08:14:37.030Z,3.13
2019-03-18T08:19:42.459Z,3.23
2019-03-18T08:24:47.872Z,2.93
2019-03-18T08:29:53.296Z,3.77
2019-03-18T08:34:58.735Z,3.20
2019-03-18T08:40:05.144Z,3.70
2019-03-18T08:45:10.798Z,3.53
2019-03-18T08:50:16.565Z,2.97
2019-03-18T08:55:22.346Z,3.30
2019-03-18T09:00:27.760Z,3.57
2019-03-18T09:05:33.165Z,3.30
2019-03-18T09:10:39.614Z,2.60
2019-03-18T09:15:45.251Z,2.63
2019-03-18T09:20:51.169Z,2.63
2019-03-18T09:25:57.008Z,3.00
2019-03-18T09:31:02.907Z,2.90
2019-03-18T09:41:29.118Z,2.90
2019-03-18T09:46:34.949Z,2.60
2019-03-18T09:51:40.403Z,2.90
2019-03-18T09:56:46.234Z,2.77
2019-03-18T10:01:51.783Z,2.50
2019-03-18T10:06:57.311Z,2.40
2019-03-18T10:12:03.559Z,3.87
2019-03-18T10:17:10.192Z,3.33
2019-03-18T10:22:15.328Z,2.50
2019-03-18T10:27:21.817Z,2.43
2019-03-18T10:32:27.300Z,2.20
2019-03-18T10:37:32.711Z,2.47
2019-03-18T10:42:38.583Z,2.10
2019-03-18T10:47:44.334Z,2.20
2019-03-18T10:52:49.818Z,2.33
2019-03-18T10:57:55.254Z,2.10
2019-03-18T11:03:00.671Z,2.80
2019-03-18T11:08:06.450Z,2.27
2019-03-18T11:13:11.895Z,1.80
2019-03-18T11:18:17.341Z,2.10
2019-03-18T11:23:22.767Z,2.33
2019-03-18T11:28:28.183Z,2.10
2019-03-18T11:33:33.628Z,2.37
2019-03-18T11:38:39.094Z,2.30
2019-03-18T11:43:44.867Z,2.20
2019-03-18T11:48:50.650Z,2.53
2019-03-18T11:53:56.780Z,2.40
2019-03-18T11:59:02.239Z,3.10
2019-03-18T12:04:07.667Z,2.73
2019-03-18T12:09:13.436Z,2.60
2019-03-18T12:14:19.162Z,2.10
2019-03-18T12:19:24.611Z,2.20
2019-03-18T12:24:30.067Z,2.20
2019-03-18T12:29:35.867Z,2.17
2019-03-18T12:34:41.352Z,2.73
2019-03-18T12:39:46.787Z,2.10
2019-03-18T12:44:52.591Z,2.07
2019-03-18T12:49:58.395Z,2.10
2019-03-18T12:55:03.866Z,2.60
2019-03-18T13:00:14.626Z,1.70
2019-03-18T13:05:20.074Z,1.80
2019-03-18T13:10:25.524Z,1.63
2019-03-18T13:15:31.101Z,1.63
2019-03-18T13:20:36.550Z,1.77
2019-03-18T13:25:42.412Z,1.97
2019-03-18T13:30:48.223Z,1.70
2019-03-18T13:35:53.649Z,2.30
2019-03-18T13:40:59.135Z,2.40
2019-03-18T13:46:05.588Z,2.00
2019-03-18T13:51:20.459Z,2.03
2019-03-18T13:56:16.670Z,1.80
2019-03-18T14:01:22.127Z,1.83
2019-03-18T14:06:27.902Z,1.87
2019-03-18T14:11:33.397Z,2.00
2019-03-18T14:16:38.854Z,1.67
2019-03-18T14:21:44.295Z,2.23
2019-03-18T14:26:49.766Z,1.73
2019-03-18T14:31:55.186Z,2.40
2019-03-18T14:37:00.630Z,2.67
2019-03-18T14:42:06.091Z,2.50
2019-03-18T14:47:11.699Z,2.33
2019-03-18T14:52:17.219Z,2.07
2019-03-18T14:57:22.673Z,2.20
2019-03-18T15:02:28.469Z,1.73
2019-03-18T15:07:34.386Z,2.07
2019-03-18T15:12:39.853Z,2.10
2019-03-18T15:17:45.736Z,1.90
2019-03-18T15:22:51.178Z,3.40
2019-03-18T15:27:56.964Z,2.50
2019-03-18T15:33:02.783Z,1.50
2019-03-18T15:38:08.250Z,2.30
2019-03-18T15:43:13.708Z,1.90
2019-03-18T15:48:19.163Z,2.10
2019-03-18T15:53:24.644Z,1.63
2019-03-18T15:58:30.100Z,2.17
2019-03-18T16:03:35.570Z,1.90
2019-03-18T16:08:40.999Z,1.53
2019-03-18T16:13:46.443Z,1.53
2019-03-18T16:18:51.900Z,2.20
2019-03-18T16:23:57.359Z,1.70
2019-03-18T16:29:02.823Z,1.37
2019-03-18T16:34:08.346Z,2.00
2019-03-18T16:39:13.791Z,1.83
2019-03-18T16:44:19.282Z,2.10
2019-03-18T16:49:24.710Z,1.50
2019-03-18T16:54:30.143Z,1.80
2019-03-18T16:59:35.666Z,2.27
2019-03-18T17:04:41.456Z,1.87
2019-03-18T17:09:46.931Z,1.87
2019-03-18T17:14:52.370Z,2.20
2019-03-18T17:19:57.831Z,2.40
2019-03-18T17:25:03.279Z,2.20
2019-03-18T17:30:13.694Z,2.27
2019-03-18T17:35:19.519Z,1.60
2019-03-18T17:40:25.210Z,2.50
2019-03-18T17:45:30.680Z,2.17
2019-03-18T17:50:36.210Z,2.67
2019-03-18T17:55:41.655Z,1.67
2019-03-18T18:00:49.327Z,1.93
2019-03-18T18:05:55.442Z,2.00
2019-03-18T18:11:01.323Z,1.40
2019-03-18T18:16:07.107Z,1.50
2019-03-18T18:21:12.971Z,1.53
2019-03-18T18:26:18.434Z,1.40
2019-03-18T18:31:23.871Z,1.30
2019-03-18T18:36:29.356Z,1.57
2019-03-18T18:41:34.807Z,1.00
2019-03-18T18:46:40.229Z,1.77
2019-03-18T18:51:46.314Z,1.73
2019-03-18T18:56:51.770Z,1.80
2019-03-18T19:01:57.200Z,2.20
2019-03-18T19:07:02.988Z,2.10
2019-03-18T19:12:08.428Z,1.80
2019-03-18T19:17:13.902Z,2.10
2019-03-18T19:22:19.751Z,3.23
2019-03-18T19:27:25.289Z,3.53
2019-03-18T19:32:31.831Z,2.80
2019-03-18T19:37:37.295Z,2.30
2019-03-18T19:42:43.116Z,2.30
2019-03-18T19:47:48.898Z,2.73
2019-03-18T19:52:54.991Z,2.40
2019-03-18T19:58:00.519Z,2.23
2019-03-18T20:03:06.004Z,3.20
2019-03-18T20:08:11.498Z,2.30
2019-03-18T20:13:17.330Z,2.40
2019-03-18T20:18:22.784Z,2.40
2019-03-18T20:23:28.240Z,2.20
2019-03-18T20:28:33.691Z,2.13
2019-03-18T20:33:39.183Z,2.37
2019-03-18T20:38:44.615Z,1.90
2019-03-18T20:43:50.040Z,3.27
2019-03-18T20:48:56.263Z,2.20
2019-03-18T20:54:11.565Z,1.90
2019-03-18T20:59:08.403Z,1.90
2019-03-18T21:04:13.907Z,2.00
2019-03-18T21:09:19.365Z,2.90
2019-03-18T21:14:25.164Z,2.10
2019-03-18T21:19:30.612Z,2.33
2019-03-18T21:24:36.057Z,2.23
2019-03-18T21:29:41.494Z,3.30
2019-03-18T21:34:46.959Z,3.23
2019-03-18T21:39:52.788Z,2.50
2019-03-18T21:44:58.324Z,2.17
2019-03-18T21:50:03.900Z,2.17
2019-03-18T21:55:09.695Z,2.53
2019-03-18T22:00:16.334Z,2.33
2019-03-18T22:05:22.097Z,2.50
2019-03-18T22:10:27.935Z,2.50
2019-03-18T22:15:33.386Z,2.33
2019-03-18T22:20:38.862Z,2.20
2019-03-18T22:25:44.333Z,3.10
2019-03-18T22:30:49.937Z,2.80
2019-03-18T22:35:55.727Z,2.93
2019-03-18T22:41:01.167Z,2.33
2019-03-18T22:46:07.302Z,2.20
2019-03-18T22:51:12.762Z,3.20
2019-03-18T22:56:18.264Z,2.33
2019-03-18T23:01:24.543Z,2.90
2019-03-18T23:06:30.056Z,2.93
2019-03-18T23:11:35.856Z,2.93
2019-03-18T23:16:41.386Z,2.90
2019-03-18T23:21:46.812Z,2.83
2019-03-18T23:26:52.630Z,2.03
2019-03-18T23:31:58.186Z,2.87
2019-03-18T23:37:03.622Z,2.70
2019-03-18T23:42:09.443Z,2.40
2019-03-18T23:47:15.054Z,2.67
2019-03-18T23:52:20.550Z,2.83
2019-03-18T23:57:26.339Z,3.17
